Time;durP1;ratioP1;P1;durP2;ratioP2;P2;SDS_P1;SDS_P2;PMS_P1;PMS_P2;Temp;Humidity;BMP_temperature;BMP_pressure;BME280_temperature;BME280_humidity;BME280_pressure;Samples;Min_cycle;Max_cycle;Signal;HPM_P1;HPM_P2
2022/01/01 00:00:33;;;;;;;21.43;13.50;;;;;;;3.25;100.00;92716.38;4999275;28;20468;-74
2022/01/01 00:03:00;;;;;;;20.10;12.87;;;;;;;3.32;100.00;92714.63;5002509;28;20626;-74
2022/01/01 00:05:28;;;;;;;25.40;18.47;;;;;;;3.27;100.00;92713.84;5005581;28;20569;-74
2022/01/01 00:07:57;;;;;;;31.47;18.60;;;;;;;3.29;100.00;92712.16;5009643;28;20554;-73
2022/01/01 00:10:26;;;;;;;49.57;23.93;;;;;;;3.36;100.00;92715.41;5006823;28;20190;-73
2022/01/01 00:12:53;;;;;;;32.53;22.10;;;;;;;3.12;100.00;92699.09;5008173;28;20198;-74
2022/01/01 00:15:20;;;;;;;44.00;21.07;;;;;;;3.13;100.00;92716.53;5011810;28;20589;-74
2022/01/01 00:17:48;;;;;;;43.40;23.27;;;;;;;3.00;100.00;92699.25;5010399;28;20481;-74
2022/01/01 00:20:16;;;;;;;26.67;20.33;;;;;;;2.88;100.00;92720.19;5010724;28;20237;-73
2022/01/01 00:22:44;;;;;;;29.83;20.43;;;;;;;2.83;100.00;92716.91;5012220;28;20485;-74
2022/01/01 00:25:12;;;;;;;27.33;17.77;;;;;;;2.79;100.00;92717.81;5010377;28;20586;-74
2022/01/01 00:27:41;;;;;;;25.73;18.97;;;;;;;2.75;100.00;92707.06;5010946;28;20638;-72
2022/01/01 00:30:10;;;;;;;30.43;19.80;;;;;;;2.71;100.00;92705.41;5012435;28;20582;-73
2022/01/01 00:32:38;;;;;;;46.03;19.53;;;;;;;2.79;100.00;92701.19;5006789;28;20476;-74
2022/01/01 00:35:06;;;;;;;36.93;18.90;;;;;;;2.78;100.00;92703.69;5004572;28;20202;-73
2022/01/01 00:37:34;;;;;;;22.27;17.37;;;;;;;2.87;100.00;92704.38;5006559;28;20230;-73
2022/01/01 00:40:01;;;;;;;25.83;19.27;;;;;;;2.97;100.00;92699.28;5009661;28;20497;-73
2022/01/01 00:42:28;;;;;;;24.27;17.80;;;;;;;3.03;100.00;92700.03;5010600;28;20593;-73
2022/01/01 00:44:57;;;;;;;25.30;16.13;;;;;;;3.00;100.00;92685.09;5008712;28;20230;-73
2022/01/01 00:47:25;;;;;;;28.23;17.93;;;;;;;3.04;100.00;92698.38;5009267;28;20640;-73
2022/01/01 00:49:52;;;;;;;21.70;16.67;;;;;;;2.91;100.00;92698.53;5005683;28;20498;-72
2022/01/01 00:52:19;;;;;;;23.33;15.80;;;;;;;2.88;100.00;92693.56;4999163;28;20306;-71
2022/01/01 00:54:46;;;;;;;19.03;14.97;;;;;;;2.83;100.00;92699.47;4998321;28;20586;-70
2022/01/01 00:57:14;;;;;;;30.27;22.30;;;;;;;2.80;100.00;92710.31;4996746;28;20502;-70
2022/01/01 00:59:41;;;;;;;14.50;13.10;;;;;;;2.85;100.00;92707.75;4998246;28;20583;-72
2022/01/01 01:02:10;;;;;;;11.60;10.50;;;;;;;2.90;100.00;92706.84;4997611;28;20477;-72
2022/01/01 01:04:37;;;;;;;12.83;11.50;;;;;;;2.89;100.00;92689.41;4997261;28;20586;-72
2022/01/01 01:07:05;;;;;;;11.00;10.13;;;;;;;2.75;100.00;92693.75;4996479;28;20500;-73
2022/01/01 01:09:32;;;;;;;7.60;7.00;;;;;;;2.69;100.00;92692.16;4996956;28;20469;-72
2022/01/01 01:11:59;;;;;;;9.50;8.70;;;;;;;2.63;100.00;92678.94;4997584;28;20481;-71
2022/01/01 01:14:28;;;;;;;7.00;6.03;;;;;;;2.70;100.00;92685.50;4998156;28;20492;-71
2022/01/01 01:16:56;;;;;;;5.23;5.03;;;;;;;2.63;100.00;92682.25;4996399;28;20579;-72
2022/01/01 01:19:25;;;;;;;5.07;3.37;;;;;;;2.56;100.00;92660.72;4996048;28;20249;-72
2022/01/01 01:21:52;;;;;;;4.03;3.80;;;;;;;2.67;100.00;92653.09;4995218;28;20571;-72
2022/01/01 01:24:23;;;;;;;4.47;4.27;;;;;;;2.75;100.00;92658.84;4996441;28;20575;-72
2022/01/01 01:26:51;;;;;;;4.87;4.63;;;;;;;2.85;100.00;92652.88;4994513;28;20268;-72
2022/01/01 01:29:19;;;;;;;3.73;3.57;;;;;;;2.88;100.00;92647.84;4993932;28;20221;-74
2022/01/01 01:31:47;;;;;;;3.93;3.67;;;;;;;2.86;100.00;92639.56;4994261;28;20458;-72
2022/01/01 01:34:14;;;;;;;4.00;3.70;;;;;;;2.72;100.00;92634.75;4995867;28;20593;-72
2022/01/01 01:36:43;;;;;;;2.50;2.40;;;;;;;2.79;100.00;92633.00;4995577;28;20468;-72
2022/01/01 01:39:11;;;;;;;4.07;3.93;;;;;;;2.66;100.00;92632.34;4996975;28;20673;-72
2022/01/01 01:41:38;;;;;;;2.27;2.17;;;;;;;2.74;100.00;92634.72;4995646;28;20590;-74
2022/01/01 01:44:24;;;;;;;3.43;3.27;;;;;;;2.76;100.00;92626.38;4995275;28;20567;-72
2022/01/01 01:46:51;;;;;;;2.57;2.47;;;;;;;2.67;100.00;92625.69;4996060;28;20709;-72
2022/01/01 01:49:18;;;;;;;2.93;2.73;;;;;;;2.59;100.00;92623.31;4996039;28;20631;-72
2022/01/01 01:51:47;;;;;;;3.13;3.03;;;;;;;2.68;100.00;92627.34;4996968;28;20582;-72
2022/01/01 01:54:16;;;;;;;2.90;2.80;;;;;;;2.78;100.00;92632.19;4995638;28;20596;-72
2022/01/01 01:56:46;;;;;;;3.63;3.43;;;;;;;2.73;100.00;92611.47;4996220;28;20482;-72
2022/01/01 01:59:14;;;;;;;3.53;3.33;;;;;;;2.73;100.00;92631.41;4996018;28;20582;-72
2022/01/01 02:01:41;;;;;;;3.10;3.00;;;;;;;2.66;100.00;92622.34;4996209;28;20485;-72
2022/01/01 02:04:09;;;;;;;5.20;4.90;;;;;;;2.77;100.00;92629.69;4996119;28;20571;-72
2022/01/01 02:06:37;;;;;;;6.33;4.50;;;;;;;2.65;100.00;92617.41;4995511;28;20206;-72
2022/01/01 02:09:05;;;;;;;4.37;4.03;;;;;;;2.66;100.00;92614.88;4996040;28;20222;-72
2022/01/01 02:11:33;;;;;;;4.50;3.33;;;;;;;2.46;100.00;92611.81;4995541;28;20466;-72
2022/01/01 02:14:12;;;;;;;2.90;1.83;;;;;;;2.55;100.00;92606.72;4995253;28;20245;-72
2022/01/01 02:17:08;;;;;;;3.30;3.10;;;;;;;2.44;100.00;92599.38;4995333;28;20662;-72
2022/01/01 02:19:48;;;;;;;3.03;2.93;;;;;;;2.63;100.00;92606.63;4995652;28;20494;-72
2022/01/01 02:22:17;;;;;;;3.67;3.37;;;;;;;2.70;100.00;92614.00;4995966;28;20555;-72
2022/01/01 02:24:45;;;;;;;5.77;5.27;;;;;;;2.70;100.00;92623.16;4995864;28;20574;-72
2022/01/01 02:27:12;;;;;;;4.20;4.00;;;;;;;2.68;100.00;92627.34;4995682;28;20497;-72
2022/01/01 02:29:39;;;;;;;6.93;6.30;;;;;;;2.60;100.00;92619.13;4996320;28;20513;-72
2022/01/01 02:32:11;;;;;;;7.03;6.40;;;;;;;2.61;100.00;92620.78;4995475;28;20578;-72
2022/01/01 02:34:38;;;;;;;7.87;5.53;;;;;;;2.43;100.00;92616.84;4995506;28;20578;-72
2022/01/01 02:37:06;;;;;;;4.63;4.43;;;;;;;2.49;100.00;92622.56;4995726;28;20539;-72
2022/01/01 02:39:35;;;;;;;5.93;5.53;;;;;;;2.38;100.00;92618.56;4996086;28;20627;-72
2022/01/01 02:42:02;;;;;;;4.37;3.53;;;;;;;2.38;100.00;92611.09;4996440;28;20548;-72
2022/01/01 02:44:30;;;;;;;2.33;2.27;;;;;;;2.30;100.00;92607.88;4995628;28;20450;-72
2022/01/01 02:46:57;;;;;;;2.67;2.47;;;;;;;2.39;100.00;92606.09;4996115;28;20549;-72
2022/01/01 02:49:25;;;;;;;3.03;2.93;;;;;;;2.40;100.00;92605.25;4998141;28;20645;-72
2022/01/01 02:51:52;;;;;;;1.77;1.63;;;;;;;2.37;100.00;92591.97;5000121;28;20191;-72
2022/01/01 02:54:20;;;;;;;1.17;1.17;;;;;;;2.27;100.00;92593.78;4999530;28;20653;-72
2022/01/01 02:56:49;;;;;;;1.00;1.00;;;;;;;2.30;100.00;92583.78;4998909;28;20576;-72
2022/01/01 02:59:17;;;;;;;7.10;1.27;;;;;;;2.37;100.00;92579.50;4999625;28;20434;-72
2022/01/01 03:01:44;;;;;;;1.53;1.00;;;;;;;2.41;100.00;92583.63;4999252;28;20313;-72
2022/01/01 03:04:11;;;;;;;2.33;2.23;;;;;;;2.23;100.00;92587.19;4998892;28;20496;-72
2022/01/01 03:06:39;;;;;;;2.40;2.27;;;;;;;2.36;100.00;92601.16;4998820;28;20589;-72
2022/01/01 03:09:06;;;;;;;2.80;2.70;;;;;;;2.43;100.00;92614.34;4998812;28;20585;-72
2022/01/01 03:11:34;;;;;;;7.77;7.03;;;;;;;2.47;100.00;92625.94;4998434;28;20646;-72
2022/01/01 03:14:02;;;;;;;17.97;10.23;;;;;;;2.39;100.00;92623.53;4998773;28;20218;-72
2022/01/01 03:16:31;;;;;;;13.80;11.40;;;;;;;2.27;100.00;92631.16;4998942;28;20624;-72
2022/01/01 03:18:58;;;;;;;11.13;10.13;;;;;;;2.14;100.00;92627.16;4998984;28;20534;-72
2022/01/01 03:21:25;;;;;;;14.50;13.03;;;;;;;2.19;100.00;92625.44;4998685;28;20613;-73
2022/01/01 03:23:53;;;;;;;20.67;13.23;;;;;;;2.29;100.00;92628.66;4999242;28;20570;-72
2022/01/01 03:26:20;;;;;;;22.40;14.67;;;;;;;2.13;100.00;92605.59;4995299;28;20610;-72
2022/01/01 03:28:47;;;;;;;11.80;10.67;;;;;;;2.08;100.00;92604.81;4996060;28;20731;-73
2022/01/01 03:31:16;;;;;;;15.73;11.77;;;;;;;2.21;100.00;92603.81;4997525;28;20209;-73
2022/01/01 03:33:44;;;;;;;16.80;12.77;;;;;;;2.20;100.00;92608.84;4998429;28;20577;-73
2022/01/01 03:36:11;;;;;;;9.73;8.83;;;;;;;2.11;100.00;92608.91;4998123;28;20478;-72
2022/01/01 03:38:38;;;;;;;8.53;7.77;;;;;;;2.00;100.00;92614.84;4998033;28;20465;-73
2022/01/01 03:41:05;;;;;;;11.13;10.10;;;;;;;2.02;100.00;92603.22;4997969;28;20598;-72
2022/01/01 03:43:32;;;;;;;12.93;11.10;;;;;;;2.13;100.00;92609.75;4998706;28;20510;-72
2022/01/01 03:46:00;;;;;;;19.13;14.53;;;;;;;1.98;100.00;92601.59;4998167;28;20589;-73
2022/01/01 03:48:28;;;;;;;14.80;13.27;;;;;;;2.00;100.00;92604.06;4997324;28;20554;-73
2022/01/01 03:50:56;;;;;;;21.43;13.83;;;;;;;1.90;100.00;92582.59;4997861;28;20716;-72
2022/01/01 03:53:24;;;;;;;25.53;14.50;;;;;;;1.96;100.00;92594.97;4998520;28;20479;-72
2022/01/01 03:55:52;;;;;;;15.23;13.90;;;;;;;1.89;100.00;92601.69;4997771;28;20558;-73
2022/01/01 03:58:19;;;;;;;12.53;11.53;;;;;;;1.96;100.00;92605.78;4997833;28;20496;-73
2022/01/01 04:00:46;;;;;;;17.47;10.77;;;;;;;1.96;100.00;92598.31;4996955;28;20223;-73
2022/01/01 04:03:16;;;;;;;16.37;12.33;;;;;;;2.09;100.00;92606.44;4997225;28;20217;-73
2022/01/01 04:05:46;;;;;;;18.40;12.53;;;;;;;2.06;100.00;92606.50;4998388;28;20544;-73
2022/01/01 04:08:14;;;;;;;19.60;11.50;;;;;;;2.02;100.00;92608.19;4997536;28;20491;-73
2022/01/01 04:10:42;;;;;;;15.30;12.10;;;;;;;1.97;100.00;92602.41;4998261;28;20319;-73
2022/01/01 04:13:10;;;;;;;18.70;12.53;;;;;;;1.85;100.00;92594.28;4998272;28;20566;-73
2022/01/01 04:15:39;;;;;;;10.20;9.23;;;;;;;1.89;100.00;92594.22;4997689;28;20448;-73
2022/01/01 04:18:10;;;;;;;11.47;10.03;;;;;;;1.92;100.00;92593.34;4997437;28;20626;-73
2022/01/01 04:20:38;;;;;;;12.67;10.30;;;;;;;1.82;100.00;92577.69;4997474;28;20492;-73
2022/01/01 04:23:09;;;;;;;14.60;10.83;;;;;;;1.94;100.00;92599.97;4997457;28;20518;-73
2022/01/01 04:25:37;;;;;;;13.03;11.67;;;;;;;1.94;100.00;92599.97;4997399;28;20566;-73
2022/01/01 04:28:05;;;;;;;10.30;9.37;;;;;;;1.95;100.00;92604.13;4997460;28;20463;-73
2022/01/01 04:30:32;;;;;;;12.33;11.00;;;;;;;1.93;100.00;92608.28;4997252;28;20476;-73
2022/01/01 04:33:00;;;;;;;14.53;12.47;;;;;;;1.92;100.00;92621.56;4997437;28;20583;-73
2022/01/01 04:35:27;;;;;;;19.03;10.90;;;;;;;1.83;100.00;92609.22;4996988;28;20558;-72
2022/01/01 04:37:55;;;;;;;13.50;12.03;;;;;;;1.85;100.00;92610.03;4997543;28;20453;-72
2022/01/01 04:40:24;;;;;;;11.53;10.43;;;;;;;1.66;100.00;92601.09;4997742;28;20645;-72
2022/01/01 04:42:52;;;;;;;12.73;9.87;;;;;;;1.77;100.00;92603.47;4997213;28;20704;-73
2022/01/01 04:45:19;;;;;;;10.57;9.73;;;;;;;1.75;100.00;92597.72;4997490;28;20519;-72
2022/01/01 04:47:46;;;;;;;9.87;9.17;;;;;;;1.66;100.00;92599.44;4996671;28;20589;-71
2022/01/01 04:50:14;;;;;;;13.00;11.43;;;;;;;1.58;100.00;92586.22;4996855;28;20479;-72
2022/01/01 04:52:42;;;;;;;14.47;13.00;;;;;;;1.58;100.00;92581.25;4997096;28;20302;-72
2022/01/01 04:55:10;;;;;;;20.47;9.87;;;;;;;1.58;100.00;92581.25;4997358;28;20621;-72
2022/01/01 04:57:39;;;;;;;10.37;8.57;;;;;;;1.71;100.00;92581.97;4998905;28;20457;-72
2022/01/01 05:00:07;;;;;;;18.27;12.67;;;;;;;1.76;100.00;92585.22;4997094;28;20593;-72
2022/01/01 05:02:35;;;;;;;15.03;10.90;;;;;;;1.81;100.00;92592.63;4997069;28;20264;-72
2022/01/01 05:05:02;;;;;;;13.60;9.83;;;;;;;1.81;100.00;92580.19;4996444;28;20477;-72
2022/01/01 05:07:29;;;;;;;13.27;10.57;;;;;;;1.85;100.00;92584.31;4996732;28;20582;-72
2022/01/01 05:09:56;;;;;;;17.53;10.73;;;;;;;1.95;100.00;92590.84;4996710;28;20563;-72
2022/01/01 05:12:24;;;;;;;15.17;9.93;;;;;;;2.04;100.00;92581.59;4996264;28;20199;-72
2022/01/01 05:14:52;;;;;;;11.83;10.60;;;;;;;2.05;100.00;92573.28;4996569;28;20559;-72
2022/01/01 05:17:20;;;;;;;20.50;12.27;;;;;;;2.17;100.00;92576.47;4996286;28;20570;-72
2022/01/01 05:19:47;;;;;;;14.27;11.60;;;;;;;2.20;100.00;92567.28;4997030;28;20499;-72
2022/01/01 05:22:14;;;;;;;10.30;9.50;;;;;;;2.24;100.00;92568.91;4996757;28;20464;-72
2022/01/01 05:24:41;;;;;;;11.50;10.47;;;;;;;2.21;100.00;92573.91;4996668;28;20210;-72
2022/01/01 05:27:09;;;;;;;27.17;12.50;;;;;;;2.20;100.00;92568.97;4996132;28;20198;-72
2022/01/01 05:29:36;;;;;;;25.60;14.10;;;;;;;2.13;100.00;92568.22;4996596;28;20574;-72
2022/01/01 05:32:05;;;;;;;18.47;12.97;;;;;;;2.27;100.00;92585.47;4996041;28;20513;-72
2022/01/01 05:34:32;;;;;;;18.83;14.40;;;;;;;2.22;100.00;92569.75;4996867;28;20523;-72
2022/01/01 05:37:00;;;;;;;15.30;13.57;;;;;;;2.17;100.00;92573.97;4995882;28;20510;-72
2022/01/01 05:39:27;;;;;;;22.03;16.67;;;;;;;2.17;100.00;92573.97;4997155;28;20588;-72
2022/01/01 05:41:54;;;;;;;21.83;16.40;;;;;;;2.19;100.00;92587.25;4996027;28;20252;-72
2022/01/01 05:44:22;;;;;;;15.37;12.87;;;;;;;2.18;100.00;92573.97;4995423;28;20700;-73
2022/01/01 05:46:51;;;;;;;12.93;11.20;;;;;;;2.29;100.00;92568.84;4996214;28;20574;-73
2022/01/01 05:49:19;;;;;;;13.03;9.87;;;;;;;2.34;100.00;92587.03;4996593;28;20487;-73
2022/01/01 05:51:46;;;;;;;10.43;9.43;;;;;;;2.26;100.00;92573.84;4996068;28;20225;-72
2022/01/01 05:54:14;;;;;;;17.87;11.13;;;;;;;2.29;100.00;92592.09;4995866;28;20487;-72
2022/01/01 05:56:41;;;;;;;8.80;8.20;;;;;;;2.31;100.00;92587.91;4996273;28;20465;-72
2022/01/01 05:59:08;;;;;;;10.40;9.63;;;;;;;2.34;100.00;92597.03;4996397;28;20595;-72
2022/01/01 06:01:36;;;;;;;10.00;9.40;;;;;;;2.40;100.00;92596.94;4995489;28;20482;-72
2022/01/01 06:04:03;;;;;;;11.00;8.67;;;;;;;2.38;100.00;92598.63;4996305;28;20480;-72
2022/01/01 06:06:32;;;;;;;10.30;9.40;;;;;;;2.39;100.00;92592.78;4995912;28;20578;-72
2022/01/01 06:08:59;;;;;;;14.70;10.53;;;;;;;2.33;100.00;92581.25;4995391;28;20199;-72
2022/01/01 06:11:26;;;;;;;16.27;11.57;;;;;;;2.52;100.00;92608.44;4996466;28;20485;-72
2022/01/01 06:13:54;;;;;;;7.60;7.10;;;;;;;2.51;100.00;92605.09;4995887;28;20586;-72
2022/01/01 06:16:21;;;;;;;9.07;8.27;;;;;;;2.58;100.00;92604.19;4997006;28;20590;-72
2022/01/01 06:18:48;;;;;;;15.27;11.60;;;;;;;2.59;100.00;92617.50;4995161;28;20559;-72
2022/01/01 06:21:16;;;;;;;9.77;8.80;;;;;;;2.52;100.00;92593.47;4995742;28;20620;-73
2022/01/01 06:23:44;;;;;;;10.57;9.53;;;;;;;2.74;100.00;92607.31;4998919;28;20509;-72
2022/01/01 06:26:12;;;;;;;11.90;10.67;;;;;;;2.74;100.00;92612.28;5000044;28;20508;-72
2022/01/01 06:28:39;;;;;;;12.40;10.03;;;;;;;2.78;100.00;92609.72;5000732;28;20206;-73
2022/01/01 06:31:07;;;;;;;7.87;7.33;;;;;;;2.90;100.00;92611.22;5000606;28;20555;-73
2022/01/01 06:33:34;;;;;;;8.83;8.13;;;;;;;2.87;100.00;92603.81;4999075;28;20567;-73
2022/01/01 06:36:01;;;;;;;7.70;7.20;;;;;;;2.99;100.00;92611.09;5000134;28;20571;-73
2022/01/01 06:38:28;;;;;;;10.63;7.70;;;;;;;3.02;100.00;92618.53;4999912;28;20191;-72
2022/01/01 06:40:57;;;;;;;6.93;6.53;;;;;;;3.11;100.00;92627.53;4998808;28;20478;-72
2022/01/01 06:43:24;;;;;;;7.20;6.40;;;;;;;3.11;100.00;92630.88;5000259;28;20575;-72
2022/01/01 06:45:52;;;;;;;8.17;7.53;;;;;;;3.18;100.00;92642.41;4999293;28;20483;-73
2022/01/01 06:48:19;;;;;;;8.00;7.37;;;;;;;3.22;100.00;92624.03;4998810;28;20603;-72
2022/01/01 06:50:46;;;;;;;8.50;7.83;;;;;;;3.26;100.00;92623.19;5000553;28;20226;-73
2022/01/01 06:53:14;;;;;;;7.80;7.03;;;;;;;3.37;100.00;92624.69;4998556;28;20202;-73
2022/01/01 06:55:41;;;;;;;8.37;7.60;;;;;;;3.29;100.00;92608.13;4998756;28;20344;-72
2022/01/01 06:58:10;;;;;;;16.73;12.80;;;;;;;3.30;100.00;92612.28;4998626;28;20218;-72
2022/01/01 07:00:39;;;;;;;8.27;7.47;;;;;;;3.36;100.00;92603.03;4984518;28;20527;-72
2022/01/01 07:03:07;;;;;;;4.70;4.33;;;;;;;3.34;100.00;92585.59;4984063;28;20658;-72
2022/01/01 07:05:34;;;;;;;6.80;5.93;;;;;;;3.54;100.00;92602.75;4996263;28;20556;-73
2022/01/01 07:08:01;;;;;;;6.97;6.37;;;;;;;3.59;100.00;92606.00;4995876;28;20650;-73
2022/01/01 07:10:29;;;;;;;39.70;21.57;;;;;;;3.81;100.00;92604.78;4995975;28;20248;-73
2022/01/01 07:12:56;;;;;;;55.67;25.23;;;;;;;3.68;100.00;92609.16;4995576;28;20594;-73
2022/01/01 07:15:25;;;;;;;20.53;14.80;;;;;;;3.78;100.00;92621.47;4997875;28;20221;-73
2022/01/01 07:17:52;;;;;;;15.80;14.20;;;;;;;3.71;100.00;92630.78;4998493;28;20199;-73
2022/01/01 07:20:20;;;;;;;26.43;17.67;;;;;;;3.63;100.00;92637.56;4998943;28;20559;-73
2022/01/01 07:22:47;;;;;;;22.80;16.67;;;;;;;3.69;100.00;92629.97;4998948;28;20518;-73
2022/01/01 07:25:16;;;;;;;29.17;18.17;;;;;;;3.67;100.00;92629.97;4998856;28;20479;-73
2022/01/01 07:27:43;;;;;;;23.10;14.80;;;;;;;3.57;100.00;92625.16;4998456;28;20579;-73
2022/01/01 07:30:11;;;;;;;20.00;13.63;;;;;;;3.68;100.00;92639.13;4998396;28;20468;-73
2022/01/01 07:32:48;;;;;;;19.00;12.70;;;;;;;3.67;100.00;92644.13;5000770;28;20272;-73
2022/01/01 07:35:17;;;;;;;17.60;14.90;;;;;;;3.61;100.00;92645.06;4997109;28;20586;-72
2022/01/01 07:37:44;;;;;;;14.03;12.00;;;;;;;3.56;100.00;92644.31;4997472;28;20549;-73
2022/01/01 07:40:14;;;;;;;10.87;9.93;;;;;;;3.55;100.00;92634.38;4997785;28;20590;-73
2022/01/01 07:42:41;;;;;;;21.03;13.30;;;;;;;3.52;100.00;92625.25;4998610;28;20614;-74
2022/01/01 07:45:10;;;;;;;16.37;12.30;;;;;;;3.73;100.00;92644.03;4999759;28;20601;-74
2022/01/01 07:47:37;;;;;;;24.57;13.97;;;;;;;3.75;100.00;92653.16;5000144;28;20587;-73
2022/01/01 07:50:08;;;;;;;14.03;12.90;;;;;;;3.82;100.00;92655.56;4997656;28;20519;-73
2022/01/01 07:52:36;;;;;;;34.47;22.00;;;;;;;3.84;100.00;92642.19;5002361;28;20487;-73
2022/01/01 07:55:03;;;;;;;37.20;19.10;;;;;;;3.77;100.00;92644.84;5000984;28;20501;-73
2022/01/01 07:57:30;;;;;;;16.90;14.83;;;;;;;3.78;100.00;92647.28;4997064;28;20584;-73
2022/01/01 07:59:58;;;;;;;27.40;17.07;;;;;;;3.67;100.00;92639.97;5000701;28;20566;-73
2022/01/01 08:02:25;;;;;;;27.33;17.70;;;;;;;3.67;100.00;92629.16;4996761;28;20606;-74
2022/01/01 08:04:53;;;;;;;23.97;16.00;;;;;;;3.72;100.00;92623.22;4999800;28;20572;-72
2022/01/01 08:07:24;;;;;;;30.17;17.47;;;;;;;3.74;100.00;92608.22;5000094;28;20202;-74
2022/01/01 08:09:51;;;;;;;28.33;19.07;;;;;;;3.94;100.00;92625.38;4998079;28;20498;-73
2022/01/01 08:12:18;;;;;;;17.77;15.27;;;;;;;4.02;100.00;92616.03;4999429;28;20528;-73
2022/01/01 08:14:46;;;;;;;16.93;15.13;;;;;;;4.23;100.00;92634.81;5000831;28;20587;-74
2022/01/01 08:17:13;;;;;;;41.50;18.53;;;;;;;4.31;100.00;92623.00;4997721;28;20207;-74
2022/01/01 08:19:42;;;;;;;14.27;13.10;;;;;;;4.46;100.00;92620.19;4998981;28;20194;-74
2022/01/01 08:22:12;;;;;;;21.93;17.30;;;;;;;4.59;100.00;92629.13;4999127;28;20634;-72
2022/01/01 08:24:41;;;;;;;51.80;22.53;;;;;;;4.69;100.00;92620.56;4999402;28;20478;-72
2022/01/01 08:27:08;;;;;;;51.20;24.37;;;;;;;4.86;100.00;92625.22;5000201;28;20497;-72
2022/01/01 08:29:36;;;;;;;32.83;23.00;;;;;;;5.01;100.00;92619.91;4998853;28;20650;-72
2022/01/01 08:32:04;;;;;;;62.80;31.67;;;;;;;5.12;100.00;92617.16;4996915;28;20550;-72
2022/01/01 08:34:31;;;;;;;74.10;36.00;;;;;;;5.51;100.00;92632.94;4997988;28;20481;-72
2022/01/01 08:36:58;;;;;;;54.53;27.20;;;;;;;5.67;100.00;92625.03;5001050;28;20572;-72
2022/01/01 08:39:25;;;;;;;62.90;31.33;;;;;;;5.68;100.00;92613.31;4997824;28;20473;-73
2022/01/01 08:41:54;;;;;;;52.53;27.33;;;;;;;5.82;100.00;92614.63;4998395;28;20486;-73
2022/01/01 08:44:21;;;;;;;62.20;28.60;;;;;;;6.04;100.00;92624.13;4997938;28;20591;-73
2022/01/01 08:46:49;;;;;;;56.67;26.20;;;;;;;6.21;100.00;92617.00;4998153;28;20478;-73
2022/01/01 08:49:16;;;;;;;35.63;21.30;;;;;;;6.37;100.00;92628.25;4996456;28;20540;-73
2022/01/01 08:51:44;;;;;;;32.63;20.80;;;;;;;6.46;100.00;92618.00;5000564;28;20471;-73
2022/01/01 08:54:14;;;;;;;33.13;18.23;;;;;;;6.50;100.00;92614.53;4998427;28;20551;-73
2022/01/01 08:56:42;;;;;;;41.17;19.67;;;;;;;6.63;100.00;92630.06;4999010;28;20544;-73
2022/01/01 08:59:11;;;;;;;25.00;15.80;;;;;;;6.81;100.00;92631.25;4997628;28;20515;-73
2022/01/01 09:01:38;;;;;;;32.60;17.83;;;;;;;6.71;100.00;92607.25;4997161;28;20210;-73
2022/01/01 09:04:06;;;;;;;30.73;18.83;;;;;;;6.95;100.00;92621.63;4998403;28;20566;-73
2022/01/01 09:06:34;;;;;;;68.27;30.10;;;;;;;7.22;100.00;92620.81;5002466;28;20484;-71
2022/01/01 09:09:01;;;;;;;69.87;31.27;;;;;;;7.44;100.00;92616.75;5002436;28;20482;-72
2022/01/01 09:11:28;;;;;;;70.93;31.47;;;;;;;7.62;100.00;92607.00;4995712;28;20472;-73
2022/01/01 09:13:56;;;;;;;74.03;33.93;;;;;;;7.78;100.00;92608.97;4999331;28;20537;-73
2022/01/01 09:16:29;;;;;;;92.47;36.30;;;;;;;7.92;100.00;92588.41;5000341;28;20583;-75
2022/01/01 09:18:57;;;;;;;70.73;32.23;;;;;;;8.21;100.00;92595.81;4999342;28;20515;-73
2022/01/01 09:21:26;;;;;;;38.53;20.10;;;;;;;8.37;100.00;92602.88;4998393;28;20276;-74
2022/01/01 09:23:54;;;;;;;46.67;23.67;;;;;;;8.62;100.00;92593.56;4995738;28;20657;-71
2022/01/01 09:26:22;;;;;;;50.90;24.47;;;;;;;8.81;100.00;92591.22;4992443;28;20567;-73
2022/01/01 09:28:49;;;;;;;65.60;25.33;;;;;;;9.04;100.00;92599.56;4989572;28;20497;-74
2022/01/01 09:31:17;;;;;;;78.37;28.77;;;;;;;9.16;100.00;92595.78;4998814;28;20560;-73
2022/01/01 09:33:45;;;;;;;61.50;28.73;;;;;;;9.33;100.00;92595.94;5003648;28;20485;-74
2022/01/01 09:36:15;;;;;;;92.53;34.43;;;;;;;9.41;100.00;92600.69;4997165;28;20482;-73
2022/01/01 09:38:43;;;;;;;101.40;37.53;;;;;;;9.62;100.00;92597.34;4999417;28;20600;-73
2022/01/01 09:41:10;;;;;;;94.63;35.37;;;;;;;9.73;100.00;92604.47;4998519;28;20578;-73
2022/01/01 09:43:38;;;;;;;71.87;29.80;;;;;;;9.94;100.00;92606.13;4999808;28;20241;-73
2022/01/01 09:46:06;;;;;;;63.57;25.03;;;;;;;10.13;100.00;92604.53;4997180;28;20515;-74
2022/01/01 09:48:34;;;;;;;49.20;22.77;;;;;;;10.20;98.26;92595.00;4997363;28;20504;-73
2022/01/01 09:51:04;;;;;;;70.87;25.33;;;;;;;10.17;98.16;92602.72;4998554;28;20191;-73
2022/01/01 09:53:33;;;;;;;32.80;17.07;;;;;;;10.22;97.92;92595.75;4995662;28;20795;-74
2022/01/01 09:56:02;;;;;;;45.33;18.27;;;;;;;10.34;97.40;92603.66;4998101;28;20522;-73
2022/01/01 09:58:31;;;;;;;59.50;22.17;;;;;;;10.11;97.01;92577.69;4994920;28;20221;-73
2022/01/01 10:00:59;;;;;;;50.00;21.70;;;;;;;10.32;96.84;92607.13;4993620;28;20199;-73
2022/01/01 10:03:31;;;;;;;61.80;26.03;;;;;;;10.26;97.02;92603.13;4996375;28;20223;-74
2022/01/01 10:06:00;;;;;;;45.53;20.93;;;;;;;10.29;97.48;92604.72;4997195;28;20564;-75
2022/01/01 10:08:29;;;;;;;43.03;19.53;;;;;;;10.30;96.85;92598.81;5001197;28;20564;-73
2022/01/01 10:10:57;;;;;;;54.40;23.60;;;;;;;10.24;98.14;92571.28;4998183;28;20590;-74
2022/01/01 10:13:29;;;;;;;67.47;26.20;;;;;;;10.86;98.05;92596.38;5000747;28;20564;-73
2022/01/01 10:15:58;;;;;;;81.27;28.17;;;;;;;11.77;95.67;92609.06;4998091;28;20518;-74
2022/01/01 10:18:31;;;;;;;90.43;36.27;;;;;;;13.19;90.30;92624.72;4995575;28;20597;-73
2022/01/01 10:21:03;;;;;;;88.95;35.70;;;;;;;14.71;82.57;92645.94;4996891;28;20226;-73
2022/01/01 10:23:34;;;;;;;82.65;34.53;;;;;;;16.24;76.45;92654.41;4998000;28;20498;-73
2022/01/01 10:29:02;;;;;;;95.80;38.97;;;;;;;16.91;71.17;92650.88;4994945;28;20305;-73
2022/01/01 10:31:29;;;;;;;57.78;23.45;;;;;;;16.13;72.49;92641.53;4996329;28;20498;-75
2022/01/01 10:33:57;;;;;;;52.92;24.05;;;;;;;15.32;75.08;92623.59;4998538;28;20222;-73
2022/01/01 10:36:24;;;;;;;49.85;22.92;;;;;;;14.72;77.54;92612.81;4996176;28;20496;-75
2022/01/01 10:38:53;;;;;;;58.78;25.08;;;;;;;14.26;79.06;92608.69;4999050;28;20556;-75
2022/01/01 10:41:20;;;;;;;34.83;18.25;;;;;;;13.87;80.89;92611.75;4996589;28;20568;-75
2022/01/01 10:43:48;;;;;;;71.30;28.42;;;;;;;13.25;83.04;92614.25;4996865;28;20641;-74
2022/01/01 10:46:17;;;;;;;97.43;33.20;;;;;;;12.88;85.63;92604.34;4997094;28;20233;-74
2022/01/01 10:48:57;;;;;;;68.65;31.38;;;;;;;12.61;87.05;92613.38;4997340;28;20627;-74
2022/01/01 10:51:24;;;;;;;75.63;30.98;;;;;;;12.32;89.00;92605.50;4988837;28;20482;-74
2022/01/01 10:54:03;;;;;;;85.40;36.40;;;;;;;12.01;91.45;92598.59;4991074;28;20466;-75
2022/01/01 10:56:38;;;;;;;86.85;33.80;;;;;;;11.84;91.09;92597.75;4992228;28;20572;-76
2022/01/01 10:59:09;;;;;;;83.43;34.27;;;;;;;11.62;92.93;92592.84;4997787;28;20202;-74
2022/01/01 11:01:44;;;;;;;79.37;31.47;;;;;;;11.47;94.37;92586.81;4994059;28;20661;-75
2022/01/01 11:04:14;;;;;;;82.03;32.07;;;;;;;11.46;95.23;92595.28;4993768;28;20646;-74
2022/01/01 11:06:42;;;;;;;96.77;35.73;;;;;;;11.48;96.00;92590.16;4995933;28;20667;-75
2022/01/01 11:09:15;;;;;;;97.07;38.87;;;;;;;11.56;96.43;92596.50;4995216;28;20672;-75
2022/01/01 11:11:43;;;;;;;151.83;56.67;;;;;;;11.70;97.37;92593.31;4996457;28;20514;-75
2022/01/01 11:14:10;;;;;;;221.13;84.33;;;;;;;11.82;97.36;92594.50;5000971;28;20581;-75
2022/01/01 11:16:38;;;;;;;199.60;79.03;;;;;;;12.01;96.36;92580.03;4998756;28;20611;-74
2022/01/01 11:19:06;;;;;;;200.02;73.88;;;;;;;12.43;96.96;92583.00;4998394;28;20515;-75
2022/01/01 11:21:34;;;;;;;171.65;63.50;;;;;;;13.09;93.11;92588.03;4998404;28;20559;-75
2022/01/01 11:24:02;;;;;;;139.25;51.33;;;;;;;13.73;87.95;92612.53;5004082;28;20544;-76
2022/01/01 11:26:31;;;;;;;129.15;51.92;;;;;;;14.20;83.63;92627.66;4997636;28;20574;-74
2022/01/01 11:29:00;;;;;;;151.73;63.53;;;;;;;14.48;82.78;92625.19;4999452;28;20586;-75